createdAt,value
2017-11-30T00:01:46.638Z,12.07
2017-11-30T00:04:16.760Z,11.57
2017-11-30T00:06:45.755Z,11.47
2017-11-30T00:09:14.853Z,12.50
2017-11-30T00:11:43.852Z,12.30
2017-11-30T00:14:12.836Z,11.33
2017-11-30T00:16:42.894Z,11.97
2017-11-30T00:19:12.358Z,11.57
2017-11-30T00:21:41.251Z,12.83
2017-11-30T00:24:12.163Z,11.70
2017-11-30T00:26:42.155Z,12.20
2017-11-30T00:29:13.802Z,11.30
2017-11-30T00:31:43.675Z,13.90
2017-11-30T00:34:13.573Z,13.80
2017-11-30T00:36:42.584Z,12.60
2017-11-30T00:39:12.497Z,13.77
2017-11-30T00:41:41.538Z,14.20
2017-11-30T00:44:22.876Z,13.37
2017-11-30T00:46:51.872Z,13.60
2017-11-30T00:49:20.961Z,12.40
2017-11-30T00:51:50.060Z,13.27
2017-11-30T00:54:19.258Z,13.83
2017-11-30T00:56:48.214Z,12.90
2017-11-30T00:59:17.446Z,12.97
2017-11-30T01:01:48.695Z,12.40
2017-11-30T01:04:20.280Z,12.73
2017-11-30T01:06:50.373Z,12.20
2017-11-30T01:09:20.258Z,11.83
2017-11-30T01:14:24.252Z,10.90
2017-11-30T01:16:53.303Z,10.73
2017-11-30T01:19:24.043Z,11.60
2017-11-30T01:21:52.967Z,11.83
2017-11-30T01:24:21.862Z,9.67
2017-11-30T01:26:51.682Z,10.67
2017-11-30T01:29:20.827Z,12.13
2017-11-30T01:31:50.691Z,10.97
2017-11-30T01:34:19.740Z,9.90
2017-11-30T01:36:48.892Z,9.40
2017-11-30T01:39:18.304Z,10.97
2017-11-30T01:44:21.654Z,10.07
2017-11-30T01:46:51.594Z,11.50
2017-11-30T01:49:20.763Z,9.70
2017-11-30T01:51:50.686Z,8.37
2017-11-30T01:54:19.813Z,9.10
2017-11-30T01:56:50.797Z,8.20
2017-11-30T01:59:19.854Z,8.90
2017-11-30T02:01:52.092Z,8.97
2017-11-30T02:04:21.599Z,8.23
2017-11-30T02:06:53.650Z,8.47
2017-11-30T02:09:23.668Z,8.80
2017-11-30T02:11:52.908Z,9.20
2017-11-30T02:14:23.811Z,8.47
2017-11-30T02:16:53.996Z,8.33
2017-11-30T02:19:23.291Z,8.23
2017-11-30T02:21:54.581Z,8.57
2017-11-30T02:24:25.164Z,9.37
2017-11-30T02:29:29.764Z,8.73
2017-11-30T02:32:02.024Z,9.40
2017-11-30T02:34:32.774Z,8.77
2017-11-30T02:37:01.853Z,10.70
2017-11-30T02:39:30.948Z,9.00
2017-11-30T02:41:59.941Z,9.60
2017-11-30T02:44:29.986Z,8.40
2017-11-30T02:46:59.973Z,8.80
2017-11-30T02:49:33.779Z,9.70
2017-11-30T02:52:04.923Z,8.97
2017-11-30T02:54:34.627Z,8.70
2017-11-30T02:57:04.858Z,7.40
2017-11-30T02:59:33.992Z,8.20
2017-11-30T03:02:05.143Z,8.00
2017-11-30T03:04:35.073Z,7.60
2017-11-30T03:07:04.178Z,8.50
2017-11-30T03:09:33.262Z,8.30
2017-11-30T03:12:02.337Z,8.13
2017-11-30T03:14:31.445Z,10.20
2017-11-30T03:17:00.694Z,7.90
2017-11-30T03:19:30.514Z,9.07
2017-11-30T03:22:05.432Z,8.40
2017-11-30T03:24:34.658Z,9.10
2017-11-30T03:27:03.776Z,9.50
2017-11-30T03:29:32.864Z,9.60
2017-11-30T03:32:01.822Z,8.50
2017-11-30T03:34:30.871Z,8.10
2017-11-30T03:37:00.736Z,8.60
2017-11-30T03:39:29.762Z,9.70
2017-11-30T03:41:59.546Z,8.70
2017-11-30T03:44:30.349Z,7.73
2017-11-30T03:46:59.468Z,8.00
2017-11-30T03:49:29.284Z,8.30
2017-11-30T03:51:59.270Z,7.47
2017-11-30T03:54:28.355Z,8.90
2017-11-30T03:56:57.356Z,8.10
2017-11-30T03:59:27.442Z,7.33
2017-11-30T04:01:56.542Z,8.90
2017-11-30T04:04:26.557Z,8.17
2017-11-30T04:07:01.658Z,7.53
2017-11-30T04:09:30.864Z,6.90
2017-11-30T04:12:00.805Z,8.57
2017-11-30T04:14:30.940Z,7.27
2017-11-30T04:17:00.854Z,9.13
2017-11-30T04:19:30.661Z,8.57
2017-11-30T04:22:00.642Z,7.33
2017-11-30T04:24:29.835Z,7.50
2017-11-30T04:27:00.557Z,7.50
2017-11-30T04:29:32.198Z,7.60
2017-11-30T04:32:01.306Z,7.50
2017-11-30T04:34:30.461Z,7.73
2017-11-30T04:36:59.611Z,6.93
2017-11-30T04:39:28.698Z,6.20
2017-11-30T04:41:58.625Z,6.40
2017-11-30T04:44:30.077Z,6.63
2017-11-30T04:46:59.999Z,5.93
2017-11-30T04:49:29.090Z,6.67
2017-11-30T04:51:59.153Z,6.37
2017-11-30T04:54:29.280Z,4.97
2017-11-30T04:56:58.425Z,6.53
2017-11-30T04:59:28.317Z,6.20
2017-11-30T05:01:57.474Z,6.17
2017-11-30T05:04:26.767Z,7.10
2017-11-30T05:06:56.080Z,6.77
2017-11-30T05:09:25.265Z,7.87
2017-11-30T05:11:54.237Z,6.70
2017-11-30T05:16:58.753Z,8.30
2017-11-30T05:19:27.803Z,8.33
2017-11-30T05:24:33.327Z,8.63
2017-11-30T05:27:02.261Z,7.43
2017-11-30T05:29:31.359Z,8.20
2017-11-30T05:32:01.264Z,7.70
2017-11-30T05:34:30.222Z,8.53
2017-11-30T05:36:59.621Z,11.50
2017-11-30T05:39:30.460Z,49.10
2017-11-30T05:42:01.394Z,24.63
2017-11-30T05:44:30.361Z,14.57
2017-11-30T05:47:01.330Z,14.77
2017-11-30T05:49:30.221Z,15.13
2017-11-30T05:51:59.423Z,9.23
2017-11-30T05:54:28.413Z,12.07
2017-11-30T05:56:57.438Z,13.57
2017-11-30T05:59:26.599Z,10.77
2017-11-30T06:01:57.564Z,9.77
2017-11-30T06:04:28.382Z,9.90
2017-11-30T06:06:59.012Z,9.23
2017-11-30T06:09:28.001Z,11.17
2017-11-30T06:11:57.116Z,9.33
2017-11-30T06:14:26.957Z,10.13
2017-11-30T06:16:56.121Z,9.37
2017-11-30T06:19:25.126Z,11.00
2017-11-30T06:21:54.169Z,9.70
2017-11-30T06:24:23.299Z,9.53
2017-11-30T06:26:53.046Z,10.20
2017-11-30T06:29:23.094Z,11.27
2017-11-30T06:31:53.096Z,15.43
2017-11-30T06:34:22.185Z,11.83
2017-11-30T06:36:51.237Z,12.70
2017-11-30T06:39:23.200Z,10.10
2017-11-30T06:41:52.460Z,11.57
2017-11-30T06:44:22.580Z,10.53
2017-11-30T06:46:51.765Z,12.27
2017-11-30T06:49:21.019Z,10.60
2017-11-30T06:51:49.983Z,10.90
2017-11-30T06:54:22.840Z,10.27
2017-11-30T06:56:52.778Z,11.93
2017-11-30T06:59:24.567Z,9.13
2017-11-30T07:01:53.663Z,9.20
2017-11-30T07:04:23.469Z,10.37
2017-11-30T07:09:29.656Z,11.10
2017-11-30T07:11:58.903Z,11.10
2017-11-30T07:14:28.777Z,13.93
2017-11-30T07:16:58.708Z,10.63
2017-11-30T07:19:27.711Z,9.27
2017-11-30T07:21:57.638Z,8.80
2017-11-30T07:24:27.717Z,11.60
2017-11-30T07:26:56.867Z,11.37
2017-11-30T07:29:25.910Z,10.50
2017-11-30T07:31:56.034Z,10.57
2017-11-30T07:34:26.241Z,11.40
2017-11-30T07:36:55.460Z,8.57
2017-11-30T07:39:26.226Z,12.07
2017-11-30T07:41:55.274Z,9.43
2017-11-30T07:44:24.471Z,9.40
2017-11-30T07:46:54.635Z,8.10
2017-11-30T07:49:23.675Z,8.60
2017-11-30T07:51:54.628Z,8.07
2017-11-30T07:54:24.749Z,8.23
2017-11-30T07:56:54.520Z,10.20
2017-11-30T07:59:23.555Z,7.90
2017-11-30T08:01:53.620Z,8.07
2017-11-30T08:04:23.619Z,7.83
2017-11-30T08:06:52.579Z,8.60
2017-11-30T08:09:22.453Z,10.10
2017-11-30T08:11:52.334Z,8.93
2017-11-30T08:14:21.413Z,8.23
2017-11-30T08:16:50.608Z,8.70
2017-11-30T08:19:19.736Z,10.90
2017-11-30T08:21:48.742Z,9.80
2017-11-30T08:24:18.948Z,10.43
2017-11-30T08:26:47.918Z,9.03
2017-11-30T08:29:16.915Z,9.70
2017-11-30T08:31:48.259Z,9.70
2017-11-30T08:34:17.352Z,9.67
2017-11-30T08:36:46.450Z,8.43
2017-11-30T08:39:16.440Z,9.57
2017-11-30T08:41:45.465Z,10.23
2017-11-30T08:44:15.638Z,10.10
2017-11-30T08:46:45.730Z,10.10
2017-11-30T08:49:15.690Z,9.73
2017-11-30T08:51:45.420Z,11.20
2017-11-30T08:54:15.590Z,10.80
2017-11-30T08:56:44.809Z,9.50
2017-11-30T08:59:13.889Z,11.10
2017-11-30T09:01:44.063Z,10.70
2017-11-30T09:04:14.776Z,10.63
2017-11-30T09:06:43.895Z,11.30
2017-11-30T09:09:16.148Z,9.43
2017-11-30T09:11:49.664Z,10.50
2017-11-30T09:14:19.568Z,10.33
2017-11-30T09:16:49.596Z,11.43
2017-11-30T09:19:20.476Z,10.73
2017-11-30T09:21:49.402Z,10.20
2017-11-30T09:24:18.623Z,10.30
2017-11-30T09:26:48.796Z,9.87
2017-11-30T09:29:17.843Z,10.17
2017-11-30T09:31:46.952Z,10.37
2017-11-30T09:34:15.879Z,10.47
2017-11-30T09:36:45.034Z,11.57
2017-11-30T09:39:16.110Z,10.60
2017-11-30T09:41:46.904Z,12.10
2017-11-30T09:44:15.995Z,10.00
2017-11-30T09:46:46.059Z,11.40
2017-11-30T09:49:15.123Z,10.70
2017-11-30T09:51:44.209Z,11.23
2017-11-30T09:54:13.965Z,10.70
2017-11-30T09:56:43.998Z,9.67
2017-11-30T09:59:13.015Z,11.17
2017-11-30T10:01:42.906Z,10.73
2017-11-30T10:04:13.888Z,9.90
2017-11-30T10:06:43.905Z,10.33
2017-11-30T10:09:15.359Z,9.40
2017-11-30T10:11:45.583Z,10.30
2017-11-30T10:14:15.445Z,10.47
2017-11-30T10:16:44.596Z,8.90
2017-11-30T10:19:13.633Z,9.33
2017-11-30T10:21:42.788Z,9.00
2017-11-30T10:26:47.299Z,11.60
2017-11-30T10:29:16.204Z,9.20
2017-11-30T10:31:45.206Z,8.90
2017-11-30T10:34:16.229Z,10.63
2017-11-30T10:36:45.258Z,9.27
2017-11-30T10:39:17.400Z,9.50
2017-11-30T10:41:46.346Z,9.80
2017-11-30T10:44:16.420Z,9.53
2017-11-30T10:46:47.056Z,9.43
2017-11-30T10:49:16.561Z,8.90
2017-11-30T10:51:45.551Z,10.50
2017-11-30T10:54:14.531Z,9.43
2017-11-30T10:56:43.539Z,8.33
2017-11-30T10:59:12.739Z,9.20
2017-11-30T11:01:41.736Z,8.10
2017-11-30T11:04:11.643Z,8.50
2017-11-30T11:06:41.520Z,10.00
2017-11-30T11:09:16.023Z,10.40
2017-11-30T11:11:45.221Z,9.07
2017-11-30T11:14:14.338Z,10.07
2017-11-30T11:16:45.244Z,10.40
2017-11-30T11:19:14.949Z,9.97
2017-11-30T11:21:44.229Z,8.73
2017-11-30T11:24:14.241Z,10.90
2017-11-30T11:26:44.243Z,11.10
2017-11-30T11:29:13.970Z,8.10
2017-11-30T11:31:44.557Z,9.20
2017-11-30T11:34:13.811Z,9.80
2017-11-30T11:36:43.866Z,10.17
2017-11-30T11:39:16.707Z,9.67
2017-11-30T11:41:45.889Z,9.93
2017-11-30T11:44:14.902Z,9.80
2017-11-30T11:46:44.230Z,10.43
2017-11-30T11:49:14.072Z,9.60
2017-11-30T11:51:44.032Z,9.60
2017-11-30T11:54:13.411Z,10.63
2017-11-30T11:56:42.326Z,11.57
2017-11-30T11:59:11.285Z,10.80
2017-11-30T12:01:43.330Z,11.50
2017-11-30T12:04:12.344Z,11.27
2017-11-30T12:06:44.093Z,11.10
2017-11-30T12:09:19.041Z,10.70
2017-11-30T12:11:48.267Z,10.30
2017-11-30T12:14:20.579Z,10.53
2017-11-30T12:16:50.347Z,10.27
2017-11-30T12:19:19.452Z,10.33
2017-11-30T12:21:51.205Z,9.63
2017-11-30T12:24:20.409Z,10.50
2017-11-30T12:26:50.268Z,12.40
2017-11-30T12:29:19.368Z,10.80
2017-11-30T12:31:48.533Z,11.07
2017-11-30T12:34:17.645Z,11.03
2017-11-30T12:36:48.036Z,10.13
2017-11-30T12:39:16.991Z,9.60
2017-11-30T12:41:46.227Z,9.50
2017-11-30T12:44:17.168Z,10.33
2017-11-30T12:46:46.405Z,9.10
2017-11-30T12:49:16.303Z,11.20
2017-11-30T12:51:46.426Z,9.83
2017-11-30T12:54:16.520Z,10.43
2017-11-30T12:56:45.650Z,12.27
2017-11-30T12:59:15.533Z,10.33
2017-11-30T13:01:47.511Z,11.20
2017-11-30T13:04:18.156Z,10.20
2017-11-30T13:06:47.339Z,11.57
2017-11-30T13:09:17.373Z,10.67
2017-11-30T13:11:49.511Z,11.13
2017-11-30T13:14:19.474Z,10.43
2017-11-30T13:16:49.147Z,9.60
2017-11-30T13:21:55.928Z,11.70
2017-11-30T13:24:25.061Z,11.03
2017-11-30T13:26:53.990Z,11.80
2017-11-30T13:29:22.985Z,9.97
2017-11-30T13:31:53.231Z,11.67
2017-11-30T13:34:22.175Z,9.90
2017-11-30T13:36:52.195Z,11.70
2017-11-30T13:39:21.238Z,10.80
2017-11-30T13:41:53.112Z,9.67
2017-11-30T13:44:22.433Z,12.13
2017-11-30T13:46:51.365Z,11.70
2017-11-30T13:49:20.233Z,10.67
2017-11-30T13:51:55.308Z,11.40
2017-11-30T13:54:25.244Z,12.43
2017-11-30T13:56:54.370Z,11.00
2017-11-30T13:59:23.429Z,9.57
2017-11-30T14:01:52.615Z,9.60
2017-11-30T14:04:21.654Z,10.70
2017-11-30T14:06:52.243Z,10.60
2017-11-30T14:09:21.346Z,11.27
2017-11-30T14:11:50.439Z,11.00
2017-11-30T14:14:19.752Z,11.40
2017-11-30T14:16:49.682Z,12.33
2017-11-30T14:19:20.539Z,12.83
2017-11-30T14:21:50.378Z,11.70
2017-11-30T14:24:19.442Z,11.07
2017-11-30T14:26:50.859Z,10.93
2017-11-30T14:29:20.041Z,11.20
2017-11-30T14:31:49.301Z,11.13
2017-11-30T14:34:18.499Z,9.90
2017-11-30T14:36:48.570Z,9.33
2017-11-30T14:39:17.651Z,10.20
2017-11-30T14:41:46.787Z,10.40
2017-11-30T14:44:17.789Z,12.97
2017-11-30T14:46:46.798Z,12.13
2017-11-30T14:49:17.643Z,11.10
2017-11-30T14:51:46.665Z,9.60
2017-11-30T14:54:16.459Z,9.40
2017-11-30T14:56:45.432Z,10.37
2017-11-30T14:59:14.620Z,9.07
2017-11-30T15:01:43.693Z,9.63
2017-11-30T15:04:12.662Z,9.77
2017-11-30T15:06:41.656Z,9.80
2017-11-30T15:09:11.529Z,10.73
2017-11-30T15:11:42.182Z,10.27
2017-11-30T15:14:11.256Z,10.60
2017-11-30T15:16:40.146Z,9.33
2017-11-30T15:19:12.014Z,8.60
2017-11-30T15:21:42.040Z,10.23
2017-11-30T15:24:11.019Z,10.87
2017-11-30T15:26:41.454Z,10.07
2017-11-30T15:29:11.929Z,11.67
2017-11-30T15:31:41.436Z,10.20
2017-11-30T15:34:13.245Z,8.60
2017-11-30T15:36:42.439Z,9.20
2017-11-30T15:39:11.456Z,9.30
2017-11-30T15:41:43.005Z,9.20
2017-11-30T15:44:12.011Z,9.00
2017-11-30T15:46:41.126Z,8.07
2017-11-30T15:49:10.963Z,9.50
2017-11-30T15:51:41.817Z,8.93
2017-11-30T15:54:10.732Z,8.63
2017-11-30T15:56:40.942Z,10.20
2017-11-30T15:59:10.587Z,10.30
2017-11-30T16:01:39.580Z,11.57
2017-11-30T16:04:11.919Z,9.77
2017-11-30T16:06:41.738Z,10.00
2017-11-30T16:09:11.462Z,9.43
2017-11-30T16:11:40.560Z,8.70
2017-11-30T16:14:10.761Z,9.13
2017-11-30T16:16:40.624Z,11.80
2017-11-30T16:19:10.461Z,14.13
2017-11-30T16:21:39.573Z,9.60
2017-11-30T16:24:08.532Z,8.67
2017-11-30T16:26:37.572Z,9.70
2017-11-30T16:29:06.620Z,8.57
2017-11-30T16:31:35.703Z,9.60
2017-11-30T16:34:06.907Z,9.37
2017-11-30T16:36:36.332Z,8.27
2017-11-30T16:39:05.799Z,10.83
2017-11-30T16:41:35.535Z,9.60
2017-11-30T16:44:04.860Z,9.87
2017-11-30T16:46:33.815Z,10.40
2017-11-30T16:49:03.255Z,11.93
2017-11-30T16:51:33.500Z,9.97
2017-11-30T16:54:03.383Z,10.83
2017-11-30T16:56:33.698Z,7.93
2017-11-30T16:59:02.683Z,10.10
2017-11-30T17:01:31.776Z,8.70
2017-11-30T17:04:01.178Z,7.70
2017-11-30T17:06:31.138Z,7.73
2017-11-30T17:09:00.447Z,9.03
2017-11-30T17:11:31.475Z,9.70
2017-11-30T17:14:03.303Z,9.13
2017-11-30T17:16:36.030Z,10.53
2017-11-30T17:19:05.075Z,12.40
2017-11-30T17:21:34.275Z,11.27
2017-11-30T17:24:04.240Z,11.03
2017-11-30T17:26:33.326Z,11.27
2017-11-30T17:29:02.339Z,9.27
2017-11-30T17:31:35.159Z,9.13
2017-11-30T17:34:04.237Z,8.33
2017-11-30T17:36:34.795Z,7.87
2017-11-30T17:39:06.465Z,9.07
2017-11-30T17:41:37.188Z,11.60
2017-11-30T17:44:07.109Z,8.37
2017-11-30T17:46:37.646Z,7.77
2017-11-30T17:49:07.460Z,7.43
2017-11-30T17:51:37.340Z,9.37
2017-11-30T17:54:07.388Z,7.90
2017-11-30T17:56:37.505Z,9.00
2017-11-30T17:59:07.604Z,9.80
2017-11-30T18:01:39.456Z,9.80
2017-11-30T18:04:09.094Z,7.67
2017-11-30T18:06:39.948Z,9.10
2017-11-30T18:09:09.994Z,8.73
2017-11-30T18:11:39.968Z,10.90
2017-11-30T18:14:09.037Z,10.47
2017-11-30T18:16:38.983Z,10.60
2017-11-30T18:19:09.614Z,12.73
2017-11-30T18:21:39.508Z,13.20
2017-11-30T18:24:10.608Z,12.10
2017-11-30T18:29:15.819Z,11.67
2017-11-30T18:31:46.232Z,9.60
2017-11-30T18:34:16.876Z,13.70
2017-11-30T18:36:47.045Z,12.80
2017-11-30T18:39:16.570Z,11.10
2017-11-30T18:41:46.871Z,10.00
2017-11-30T18:44:16.861Z,10.23
2017-11-30T18:46:46.036Z,11.87
2017-11-30T18:49:19.191Z,13.90
2017-11-30T18:51:49.380Z,11.67
2017-11-30T18:54:18.643Z,9.60
2017-11-30T18:56:48.408Z,10.27
2017-11-30T18:59:18.360Z,11.27
2017-11-30T19:01:48.118Z,7.97
2017-11-30T19:04:19.024Z,9.07
2017-11-30T19:06:49.213Z,9.50
2017-11-30T19:09:18.293Z,8.50
2017-11-30T19:11:48.227Z,7.77
2017-11-30T19:14:17.610Z,8.13
2017-11-30T19:16:46.585Z,8.07
2017-11-30T19:19:17.484Z,9.00
2017-11-30T19:21:47.591Z,7.97
2017-11-30T19:24:16.804Z,9.50
2017-11-30T19:26:47.209Z,9.33
2017-11-30T19:29:16.230Z,7.10
2017-11-30T19:31:45.259Z,6.40
2017-11-30T19:34:15.561Z,7.03
2017-11-30T19:36:45.935Z,6.37
2017-11-30T19:39:14.951Z,9.17
2017-11-30T19:41:44.831Z,6.53
2017-11-30T19:44:13.974Z,7.67
2017-11-30T19:46:44.008Z,8.13
2017-11-30T19:49:13.357Z,8.03
2017-11-30T19:51:42.394Z,8.93
2017-11-30T19:54:11.450Z,7.43
2017-11-30T19:56:43.459Z,5.33
2017-11-30T19:59:12.455Z,5.60
2017-11-30T20:01:41.897Z,6.93
2017-11-30T20:04:11.754Z,6.87
2017-11-30T20:06:41.271Z,7.00
2017-11-30T20:09:10.495Z,8.67
2017-11-30T20:11:41.403Z,6.70
2017-11-30T20:14:10.717Z,7.13
2017-11-30T20:16:41.037Z,5.10
2017-11-30T20:19:11.759Z,5.10
2017-11-30T20:21:41.039Z,14.77
2017-11-30T20:24:12.408Z,7.00
2017-11-30T20:26:42.072Z,6.00
2017-11-30T20:29:11.603Z,4.13
2017-11-30T20:31:46.398Z,6.33
2017-11-30T20:34:16.605Z,6.43
2017-11-30T20:36:45.890Z,4.60
2017-11-30T20:39:15.927Z,5.30
2017-11-30T20:41:45.505Z,5.10
2017-11-30T20:44:15.094Z,4.90
2017-11-30T20:46:45.552Z,7.20
2017-11-30T20:49:15.637Z,4.63
2017-11-30T20:51:45.009Z,5.70
2017-11-30T20:54:14.040Z,6.13
2017-11-30T20:56:43.054Z,7.47
2017-11-30T20:59:12.727Z,4.97
2017-11-30T21:01:43.914Z,6.17
2017-11-30T21:04:14.933Z,4.93
2017-11-30T21:06:46.853Z,5.10
2017-11-30T21:09:17.777Z,4.50
2017-11-30T21:11:47.057Z,4.20
2017-11-30T21:14:16.400Z,5.10
2017-11-30T21:16:45.481Z,4.13
2017-11-30T21:19:17.107Z,4.53
2017-11-30T21:21:46.589Z,4.90
2017-11-30T21:24:15.860Z,5.20
2017-11-30T21:26:44.911Z,7.20
2017-11-30T21:29:14.350Z,7.00
2017-11-30T21:31:43.405Z,5.23
2017-11-30T21:34:12.607Z,4.73
2017-11-30T21:36:42.195Z,4.97
2017-11-30T21:39:13.869Z,4.30
2017-11-30T21:41:43.727Z,4.90
2017-11-30T21:44:13.129Z,5.20
2017-11-30T21:46:42.213Z,4.63
2017-11-30T21:49:12.312Z,5.77
2017-11-30T21:51:41.253Z,5.00
2017-11-30T21:54:11.195Z,5.20
2017-11-30T21:56:40.304Z,4.17
2017-11-30T21:59:10.359Z,5.80
2017-11-30T22:01:39.383Z,6.07
2017-11-30T22:04:08.417Z,4.20
2017-11-30T22:06:39.396Z,5.23
2017-11-30T22:09:13.882Z,6.40
2017-11-30T22:11:43.318Z,5.37
2017-11-30T22:14:12.534Z,4.50
2017-11-30T22:16:43.317Z,4.53
2017-11-30T22:19:12.349Z,4.50
2017-11-30T22:21:41.557Z,5.37
2017-11-30T22:24:10.648Z,6.27
2017-11-30T22:26:40.516Z,3.93
2017-11-30T22:29:09.920Z,4.37
2017-11-30T22:31:40.765Z,4.50
2017-11-30T22:34:09.867Z,4.70
2017-11-30T22:36:39.872Z,4.70
2017-11-30T22:39:10.092Z,4.20
2017-11-30T22:41:41.001Z,4.47
2017-11-30T22:44:09.988Z,4.83
2017-11-30T22:46:40.733Z,5.43
2017-11-30T22:49:09.844Z,6.20
2017-11-30T22:51:41.408Z,5.63
2017-11-30T22:54:10.445Z,6.37
2017-11-30T22:56:39.392Z,5.20
2017-11-30T22:59:13.228Z,6.87
2017-11-30T23:01:42.404Z,5.07
2017-11-30T23:04:11.330Z,5.93
2017-11-30T23:06:44.152Z,3.73
2017-11-30T23:09:13.372Z,3.30
2017-11-30T23:11:43.290Z,4.23
2017-11-30T23:14:15.562Z,4.00
2017-11-30T23:16:44.555Z,5.20
2017-11-30T23:19:14.834Z,4.37
2017-11-30T23:21:44.973Z,3.60
2017-11-30T23:24:15.513Z,3.20
2017-11-30T23:26:44.620Z,2.70
2017-11-30T23:29:20.869Z,3.77
2017-11-30T23:31:49.825Z,3.07
2017-11-30T23:34:19.805Z,3.13
2017-11-30T23:36:50.167Z,3.23
2017-11-30T23:39:19.958Z,3.80
2017-11-30T23:41:48.931Z,3.37
2017-11-30T23:44:19.028Z,4.20
2017-11-30T23:46:48.044Z,3.60
2017-11-30T23:49:17.138Z,3.90
2017-11-30T23:51:48.813Z,3.63
2017-11-30T23:54:17.946Z,4.90
2017-11-30T23:56:47.705Z,3.97
2017-11-30T23:59:18.727Z,4.33
